sensor_id;sensor_type;location;lat;lon;timestamp;temperature;humidity
21778;DHT22;11050;52.222;20.916;2022-07-23T00:00:01;22.10;85.10
21778;DHT22;11050;52.222;20.916;2022-07-23T00:02:28;22.10;86.00
21778;DHT22;11050;52.222;20.916;2022-07-23T00:04:54;22.00;86.70
21778;DHT22;11050;52.222;20.916;2022-07-23T00:07:19;22.00;87.50
21778;DHT22;11050;52.222;20.916;2022-07-23T00:09:45;21.90;88.20
21778;DHT22;11050;52.222;20.916;2022-07-23T00:12:11;21.80;89.00
21778;DHT22;11050;52.222;20.916;2022-07-23T00:14:37;21.80;89.80
21778;DHT22;11050;52.222;20.916;2022-07-23T00:17:02;21.80;90.30
21778;DHT22;11050;52.222;20.916;2022-07-23T00:19:28;21.70;90.90
21778;DHT22;11050;52.222;20.916;2022-07-23T00:21:54;21.70;91.60
21778;DHT22;11050;52.222;20.916;2022-07-23T00:24:20;21.70;92.00
21778;DHT22;11050;52.222;20.916;2022-07-23T00:26:46;21.60;92.50
21778;DHT22;11050;52.222;20.916;2022-07-23T00:29:12;21.60;92.90
21778;DHT22;11050;52.222;20.916;2022-07-23T00:31:37;21.50;93.40
21778;DHT22;11050;52.222;20.916;2022-07-23T00:34:03;21.50;94.50
21778;DHT22;11050;52.222;20.916;2022-07-23T00:36:29;21.50;95.30
21778;DHT22;11050;52.222;20.916;2022-07-23T00:38:56;21.40;96.00
21778;DHT22;11050;52.222;20.916;2022-07-23T00:41:22;21.40;96.60
21778;DHT22;11050;52.222;20.916;2022-07-23T00:43:49;21.30;97.10
21778;DHT22;11050;52.222;20.916;2022-07-23T00:46:21;21.30;97.80
21778;DHT22;11050;52.222;20.916;2022-07-23T00:48:48;21.20;98.60
21778;DHT22;11050;52.222;20.916;2022-07-23T00:51:17;21.20;99.20
21778;DHT22;11050;52.222;20.916;2022-07-23T00:53:44;21.10;99.60
21778;DHT22;11050;52.222;20.916;2022-07-23T00:56:10;21.10;99.90
21778;DHT22;11050;52.222;20.916;2022-07-23T00:58:38;21.00;99.90
21778;DHT22;11050;52.222;20.916;2022-07-23T01:01:07;21.00;99.90
21778;DHT22;11050;52.222;20.916;2022-07-23T01:03:33;21.00;99.90
21778;DHT22;11050;52.222;20.916;2022-07-23T01:05:59;21.00;99.90
21778;DHT22;11050;52.222;20.916;2022-07-23T01:08:25;21.00;99.90
21778;DHT22;11050;52.222;20.916;2022-07-23T01:10:51;20.90;99.90
21778;DHT22;11050;52.222;20.916;2022-07-23T01:13:17;20.90;99.90
21778;DHT22;11050;52.222;20.916;2022-07-23T01:15:43;20.90;99.90
21778;DHT22;11050;52.222;20.916;2022-07-23T01:18:09;20.90;99.90
21778;DHT22;11050;52.222;20.916;2022-07-23T01:20:36;20.90;99.90
21778;DHT22;11050;52.222;20.916;2022-07-23T01:23:02;20.80;99.90
21778;DHT22;11050;52.222;20.916;2022-07-23T01:25:28;20.80;99.90
21778;DHT22;11050;52.222;20.916;2022-07-23T01:27:54;20.80;99.90
21778;DHT22;11050;52.222;20.916;2022-07-23T01:30:20;20.70;99.90
21778;DHT22;11050;52.222;20.916;2022-07-23T01:32:46;20.70;99.90
21778;DHT22;11050;52.222;20.916;2022-07-23T01:35:12;20.70;99.90
21778;DHT22;11050;52.222;20.916;2022-07-23T01:37:38;20.60;99.90
21778;DHT22;11050;52.222;20.916;2022-07-23T01:40:05;20.60;99.90
21778;DHT22;11050;52.222;20.916;2022-07-23T01:42:31;20.60;99.90
21778;DHT22;11050;52.222;20.916;2022-07-23T01:44:57;20.50;99.90
21778;DHT22;11050;52.222;20.916;2022-07-23T01:47:23;20.50;99.90
21778;DHT22;11050;52.222;20.916;2022-07-23T01:49:49;20.50;99.90
21778;DHT22;11050;52.222;20.916;2022-07-23T01:52:14;20.50;99.90
21778;DHT22;11050;52.222;20.916;2022-07-23T01:54:41;20.40;99.90
21778;DHT22;11050;52.222;20.916;2022-07-23T01:57:08;20.40;99.90
21778;DHT22;11050;52.222;20.916;2022-07-23T01:59:34;20.40;99.90
21778;DHT22;11050;52.222;20.916;2022-07-23T02:02:01;20.40;99.90
21778;DHT22;11050;52.222;20.916;2022-07-23T02:04:28;20.40;99.90
21778;DHT22;11050;52.222;20.916;2022-07-23T02:06:54;20.30;99.90
21778;DHT22;11050;52.222;20.916;2022-07-23T02:09:20;20.40;99.90
21778;DHT22;11050;52.222;20.916;2022-07-23T02:11:46;20.30;99.90
21778;DHT22;11050;52.222;20.916;2022-07-23T02:14:12;20.30;99.90
21778;DHT22;11050;52.222;20.916;2022-07-23T02:16:38;20.20;99.90
21778;DHT22;11050;52.222;20.916;2022-07-23T02:19:04;20.20;99.90
21778;DHT22;11050;52.222;20.916;2022-07-23T02:21:30;20.20;99.90
21778;DHT22;11050;52.222;20.916;2022-07-23T02:23:56;20.10;99.90
21778;DHT22;11050;52.222;20.916;2022-07-23T02:26:22;20.10;99.90
21778;DHT22;11050;52.222;20.916;2022-07-23T02:28:48;20.10;99.90
21778;DHT22;11050;52.222;20.916;2022-07-23T02:31:14;20.10;99.90
21778;DHT22;11050;52.222;20.916;2022-07-23T02:33:40;20.00;99.90
21778;DHT22;11050;52.222;20.916;2022-07-23T02:36:05;20.00;99.90
21778;DHT22;11050;52.222;20.916;2022-07-23T02:38:32;20.00;99.90
21778;DHT22;11050;52.222;20.916;2022-07-23T02:40:57;19.90;99.90
21778;DHT22;11050;52.222;20.916;2022-07-23T02:43:23;19.90;99.90
21778;DHT22;11050;52.222;20.916;2022-07-23T02:45:49;19.90;99.90
21778;DHT22;11050;52.222;20.916;2022-07-23T02:48:15;19.90;99.90
21778;DHT22;11050;52.222;20.916;2022-07-23T02:50:40;19.90;99.90
21778;DHT22;11050;52.222;20.916;2022-07-23T02:53:06;19.80;99.90
21778;DHT22;11050;52.222;20.916;2022-07-23T02:55:32;19.80;99.90
21778;DHT22;11050;52.222;20.916;2022-07-23T02:57:58;19.80;99.90
21778;DHT22;11050;52.222;20.916;2022-07-23T03:00:24;19.80;99.90
21778;DHT22;11050;52.222;20.916;2022-07-23T03:02:49;19.80;99.90
21778;DHT22;11050;52.222;20.916;2022-07-23T03:05:15;19.80;99.90
21778;DHT22;11050;52.222;20.916;2022-07-23T03:07:41;19.80;99.90
21778;DHT22;11050;52.222;20.916;2022-07-23T03:10:07;19.80;99.90
21778;DHT22;11050;52.222;20.916;2022-07-23T03:12:33;19.70;99.90
21778;DHT22;11050;52.222;20.916;2022-07-23T03:14:59;19.70;99.90
21778;DHT22;11050;52.222;20.916;2022-07-23T03:17:24;19.70;99.90
21778;DHT22;11050;52.222;20.916;2022-07-23T03:19:50;19.70;99.90
21778;DHT22;11050;52.222;20.916;2022-07-23T03:22:16;19.70;99.90
21778;DHT22;11050;52.222;20.916;2022-07-23T03:24:42;19.70;99.90
21778;DHT22;11050;52.222;20.916;2022-07-23T03:27:21;19.70;99.90
21778;DHT22;11050;52.222;20.916;2022-07-23T03:29:48;19.70;99.90
21778;DHT22;11050;52.222;20.916;2022-07-23T03:32:14;19.70;99.90
21778;DHT22;11050;52.222;20.916;2022-07-23T03:34:40;19.70;99.90
21778;DHT22;11050;52.222;20.916;2022-07-23T03:37:06;19.70;99.90
21778;DHT22;11050;52.222;20.916;2022-07-23T03:39:32;19.70;99.90
21778;DHT22;11050;52.222;20.916;2022-07-23T03:41:58;19.70;99.90
21778;DHT22;11050;52.222;20.916;2022-07-23T03:44:23;19.80;99.90
21778;DHT22;11050;52.222;20.916;2022-07-23T03:46:49;19.80;99.90
21778;DHT22;11050;52.222;20.916;2022-07-23T03:49:15;19.80;99.90
21778;DHT22;11050;52.222;20.916;2022-07-23T03:51:41;19.80;99.90
21778;DHT22;11050;52.222;20.916;2022-07-23T03:54:07;19.80;99.90
21778;DHT22;11050;52.222;20.916;2022-07-23T03:56:33;19.90;99.90
21778;DHT22;11050;52.222;20.916;2022-07-23T03:58:59;19.90;99.90
21778;DHT22;11050;52.222;20.916;2022-07-23T04:01:24;19.90;99.90
21778;DHT22;11050;52.222;20.916;2022-07-23T04:03:50;19.90;99.90
21778;DHT22;11050;52.222;20.916;2022-07-23T04:06:16;20.00;99.90
21778;DHT22;11050;52.222;20.916;2022-07-23T04:08:42;19.90;99.90
21778;DHT22;11050;52.222;20.916;2022-07-23T04:11:07;20.00;99.90
21778;DHT22;11050;52.222;20.916;2022-07-23T04:13:33;20.00;99.90
21778;DHT22;11050;52.222;20.916;2022-07-23T04:15:59;20.00;99.90
21778;DHT22;11050;52.222;20.916;2022-07-23T04:18:25;20.00;99.90
21778;DHT22;11050;52.222;20.916;2022-07-23T04:20:51;20.10;99.90
21778;DHT22;11050;52.222;20.916;2022-07-23T04:23:17;20.10;99.90
21778;DHT22;11050;52.222;20.916;2022-07-23T04:25:43;20.10;99.90
21778;DHT22;11050;52.222;20.916;2022-07-23T04:28:09;20.10;99.90
21778;DHT22;11050;52.222;20.916;2022-07-23T04:30:35;20.10;99.90
21778;DHT22;11050;52.222;20.916;2022-07-23T04:33:01;20.20;99.90
21778;DHT22;11050;52.222;20.916;2022-07-23T04:35:31;20.20;99.90
21778;DHT22;11050;52.222;20.916;2022-07-23T04:37:56;20.30;99.90
21778;DHT22;11050;52.222;20.916;2022-07-23T04:40:22;20.30;99.90
21778;DHT22;11050;52.222;20.916;2022-07-23T04:42:48;20.40;99.90
21778;DHT22;11050;52.222;20.916;2022-07-23T04:45:14;20.40;99.90
21778;DHT22;11050;52.222;20.916;2022-07-23T04:47:53;20.40;99.90
21778;DHT22;11050;52.222;20.916;2022-07-23T04:50:19;20.50;99.90
21778;DHT22;11050;52.222;20.916;2022-07-23T04:52:47;20.50;99.90
21778;DHT22;11050;52.222;20.916;2022-07-23T04:55:15;20.60;99.90
21778;DHT22;11050;52.222;20.916;2022-07-23T04:57:41;20.60;99.90
21778;DHT22;11050;52.222;20.916;2022-07-23T05:00:08;20.70;99.90
21778;DHT22;11050;52.222;20.916;2022-07-23T05:02:35;20.80;99.90
21778;DHT22;11050;52.222;20.916;2022-07-23T05:05:01;20.80;99.90
21778;DHT22;11050;52.222;20.916;2022-07-23T05:07:26;20.90;99.90
21778;DHT22;11050;52.222;20.916;2022-07-23T05:09:52;21.00;99.90
21778;DHT22;11050;52.222;20.916;2022-07-23T05:12:18;21.00;99.90
21778;DHT22;11050;52.222;20.916;2022-07-23T05:14:43;21.10;99.90
21778;DHT22;11050;52.222;20.916;2022-07-23T05:17:09;21.20;99.90
21778;DHT22;11050;52.222;20.916;2022-07-23T05:19:35;21.30;99.90
21778;DHT22;11050;52.222;20.916;2022-07-23T05:22:01;21.40;99.90
21778;DHT22;11050;52.222;20.916;2022-07-23T05:24:27;21.50;99.90
21778;DHT22;11050;52.222;20.916;2022-07-23T05:26:53;21.60;99.90
21778;DHT22;11050;52.222;20.916;2022-07-23T05:29:19;21.70;99.90
21778;DHT22;11050;52.222;20.916;2022-07-23T05:31:45;21.80;99.90
21778;DHT22;11050;52.222;20.916;2022-07-23T05:34:11;21.90;99.90
21778;DHT22;11050;52.222;20.916;2022-07-23T05:36:37;22.00;99.90
21778;DHT22;11050;52.222;20.916;2022-07-23T05:39:03;22.10;99.90
21778;DHT22;11050;52.222;20.916;2022-07-23T05:41:29;22.20;99.90
21778;DHT22;11050;52.222;20.916;2022-07-23T05:43:55;22.40;99.90
21778;DHT22;11050;52.222;20.916;2022-07-23T05:46:21;22.50;99.90
21778;DHT22;11050;52.222;20.916;2022-07-23T05:48:47;22.50;99.90
21778;DHT22;11050;52.222;20.916;2022-07-23T05:51:20;22.70;99.90
21778;DHT22;11050;52.222;20.916;2022-07-23T05:53:47;22.70;99.90
21778;DHT22;11050;52.222;20.916;2022-07-23T05:56:13;22.80;99.90
21778;DHT22;11050;52.222;20.916;2022-07-23T05:58:39;22.90;99.90
21778;DHT22;11050;52.222;20.916;2022-07-23T06:01:05;23.00;99.90
21778;DHT22;11050;52.222;20.916;2022-07-23T06:03:31;23.10;99.90
21778;DHT22;11050;52.222;20.916;2022-07-23T06:05:57;23.20;99.90
21778;DHT22;11050;52.222;20.916;2022-07-23T06:08:22;23.30;99.90
21778;DHT22;11050;52.222;20.916;2022-07-23T06:10:48;23.40;99.90
21778;DHT22;11050;52.222;20.916;2022-07-23T06:13:14;23.50;99.90
21778;DHT22;11050;52.222;20.916;2022-07-23T06:15:40;23.60;99.90
21778;DHT22;11050;52.222;20.916;2022-07-23T06:18:06;23.70;99.90
21778;DHT22;11050;52.222;20.916;2022-07-23T06:20:31;23.80;99.90
21778;DHT22;11050;52.222;20.916;2022-07-23T06:22:57;23.90;99.90
21778;DHT22;11050;52.222;20.916;2022-07-23T06:25:23;24.00;99.90
21778;DHT22;11050;52.222;20.916;2022-07-23T06:27:49;24.10;99.90
21778;DHT22;11050;52.222;20.916;2022-07-23T06:30:15;24.30;99.90
21778;DHT22;11050;52.222;20.916;2022-07-23T06:32:42;24.40;99.90
21778;DHT22;11050;52.222;20.916;2022-07-23T06:35:09;24.50;99.90
21778;DHT22;11050;52.222;20.916;2022-07-23T06:37:35;24.60;99.90
21778;DHT22;11050;52.222;20.916;2022-07-23T06:40:01;24.70;99.90
21778;DHT22;11050;52.222;20.916;2022-07-23T06:42:27;24.80;99.90
21778;DHT22;11050;52.222;20.916;2022-07-23T06:44:53;24.90;99.90
21778;DHT22;11050;52.222;20.916;2022-07-23T06:47:19;25.00;99.90
21778;DHT22;11050;52.222;20.916;2022-07-23T06:49:45;25.10;99.90
21778;DHT22;11050;52.222;20.916;2022-07-23T06:52:11;25.20;99.90
21778;DHT22;11050;52.222;20.916;2022-07-23T06:54:37;25.20;99.90
21778;DHT22;11050;52.222;20.916;2022-07-23T06:57:02;25.40;99.90
21778;DHT22;11050;52.222;20.916;2022-07-23T06:59:28;25.40;99.90
21778;DHT22;11050;52.222;20.916;2022-07-23T07:01:54;25.50;99.90
21778;DHT22;11050;52.222;20.916;2022-07-23T07:04:20;25.50;99.90
21778;DHT22;11050;52.222;20.916;2022-07-23T07:06:46;25.60;99.90
21778;DHT22;11050;52.222;20.916;2022-07-23T07:09:12;25.70;99.90
21778;DHT22;11050;52.222;20.916;2022-07-23T07:11:38;25.80;99.90
21778;DHT22;11050;52.222;20.916;2022-07-23T07:14:04;25.80;99.90
21778;DHT22;11050;52.222;20.916;2022-07-23T07:16:30;25.90;99.90
21778;DHT22;11050;52.222;20.916;2022-07-23T07:18:55;26.00;99.90
21778;DHT22;11050;52.222;20.916;2022-07-23T07:21:21;26.10;99.90
21778;DHT22;11050;52.222;20.916;2022-07-23T07:23:47;26.20;99.90
21778;DHT22;11050;52.222;20.916;2022-07-23T07:26:13;26.30;98.90
21778;DHT22;11050;52.222;20.916;2022-07-23T07:28:38;26.40;98.30
21778;DHT22;11050;52.222;20.916;2022-07-23T07:31:04;26.40;95.40
21778;DHT22;11050;52.222;20.916;2022-07-23T07:33:30;26.60;95.70
21778;DHT22;11050;52.222;20.916;2022-07-23T07:35:56;26.60;96.00
21778;DHT22;11050;52.222;20.916;2022-07-23T07:38:22;26.70;93.80
21778;DHT22;11050;52.222;20.916;2022-07-23T07:40:48;26.80;93.30
21778;DHT22;11050;52.222;20.916;2022-07-23T07:43:14;26.80;93.60
21778;DHT22;11050;52.222;20.916;2022-07-23T07:45:39;26.90;93.00
21778;DHT22;11050;52.222;20.916;2022-07-23T07:48:05;27.00;90.40
21778;DHT22;11050;52.222;20.916;2022-07-23T07:50:31;27.00;90.80
21778;DHT22;11050;52.222;20.916;2022-07-23T07:52:57;27.10;91.50
21778;DHT22;11050;52.222;20.916;2022-07-23T07:55:22;27.20;91.30
21778;DHT22;11050;52.222;20.916;2022-07-23T07:57:48;27.20;91.10
21778;DHT22;11050;52.222;20.916;2022-07-23T08:00:14;27.30;90.70
21778;DHT22;11050;52.222;20.916;2022-07-23T08:02:45;27.40;90.90
21778;DHT22;11050;52.222;20.916;2022-07-23T08:05:13;27.40;90.00
21778;DHT22;11050;52.222;20.916;2022-07-23T08:07:40;27.50;90.10
21778;DHT22;11050;52.222;20.916;2022-07-23T08:10:08;27.60;90.00
21778;DHT22;11050;52.222;20.916;2022-07-23T08:12:51;27.60;89.80
21778;DHT22;11050;52.222;20.916;2022-07-23T08:15:22;27.80;89.50
21778;DHT22;11050;52.222;20.916;2022-07-23T08:17:50;27.80;87.30
21778;DHT22;11050;52.222;20.916;2022-07-23T08:20:17;28.00;86.40
21778;DHT22;11050;52.222;20.916;2022-07-23T08:25:21;28.10;83.60
21778;DHT22;11050;52.222;20.916;2022-07-23T08:27:58;28.20;84.40
21778;DHT22;11050;52.222;20.916;2022-07-23T08:30:26;28.30;83.40
21778;DHT22;11050;52.222;20.916;2022-07-23T08:33:00;28.30;82.30
21778;DHT22;11050;52.222;20.916;2022-07-23T08:35:34;28.40;82.10
21778;DHT22;11050;52.222;20.916;2022-07-23T08:38:05;28.50;80.20
21778;DHT22;11050;52.222;20.916;2022-07-23T08:40:36;28.50;79.10
21778;DHT22;11050;52.222;20.916;2022-07-23T08:43:05;28.60;77.80
21778;DHT22;11050;52.222;20.916;2022-07-23T08:45:37;28.60;75.80
21778;DHT22;11050;52.222;20.916;2022-07-23T08:48:08;28.60;76.80
21778;DHT22;11050;52.222;20.916;2022-07-23T08:50:47;28.70;77.20
21778;DHT22;11050;52.222;20.916;2022-07-23T08:53:15;28.70;76.10
21778;DHT22;11050;52.222;20.916;2022-07-23T08:55:48;28.70;74.10
21778;DHT22;11050;52.222;20.916;2022-07-23T08:58:17;28.70;73.10
21778;DHT22;11050;52.222;20.916;2022-07-23T09:00:44;28.80;73.20
21778;DHT22;11050;52.222;20.916;2022-07-23T09:03:19;28.80;72.80
21778;DHT22;11050;52.222;20.916;2022-07-23T09:05:45;28.90;74.20
21778;DHT22;11050;52.222;20.916;2022-07-23T09:08:37;28.90;71.30
21778;DHT22;11050;52.222;20.916;2022-07-23T09:11:09;29.00;71.40
21778;DHT22;11050;52.222;20.916;2022-07-23T09:13:52;29.00;70.00
21778;DHT22;11050;52.222;20.916;2022-07-23T09:16:27;29.10;69.30
21778;DHT22;11050;52.222;20.916;2022-07-23T09:19:06;29.00;69.00
21778;DHT22;11050;52.222;20.916;2022-07-23T09:21:34;29.10;69.00
21778;DHT22;11050;52.222;20.916;2022-07-23T09:24:09;29.10;69.20
21778;DHT22;11050;52.222;20.916;2022-07-23T09:26:45;29.20;69.50
21778;DHT22;11050;52.222;20.916;2022-07-23T09:29:23;29.30;67.10
21778;DHT22;11050;52.222;20.916;2022-07-23T09:31:56;29.40;66.70
21778;DHT22;11050;52.222;20.916;2022-07-23T09:34:27;29.50;66.70
21778;DHT22;11050;52.222;20.916;2022-07-23T09:36:58;29.50;67.50
21778;DHT22;11050;52.222;20.916;2022-07-23T09:39:39;29.60;65.20
21778;DHT22;11050;52.222;20.916;2022-07-23T09:44:47;29.80;65.60
21778;DHT22;11050;52.222;20.916;2022-07-23T09:47:14;29.90;63.20
21778;DHT22;11050;52.222;20.916;2022-07-23T09:49:40;29.90;61.00
21778;DHT22;11050;52.222;20.916;2022-07-23T09:52:30;29.90;60.70
21778;DHT22;11050;52.222;20.916;2022-07-23T09:55:03;29.90;60.10
21778;DHT22;11050;52.222;20.916;2022-07-23T09:57:32;29.90;58.20
21778;DHT22;11050;52.222;20.916;2022-07-23T10:00:02;30.00;57.80
21778;DHT22;11050;52.222;20.916;2022-07-23T10:02:32;30.00;58.80
21778;DHT22;11050;52.222;20.916;2022-07-23T10:05:01;30.00;59.50
21778;DHT22;11050;52.222;20.916;2022-07-23T10:07:28;30.10;60.50
21778;DHT22;11050;52.222;20.916;2022-07-23T10:09:59;30.20;60.70
21778;DHT22;11050;52.222;20.916;2022-07-23T10:12:27;30.30;60.00
21778;DHT22;11050;52.222;20.916;2022-07-23T10:15:06;30.40;59.90
21778;DHT22;11050;52.222;20.916;2022-07-23T10:17:32;30.40;58.50
21778;DHT22;11050;52.222;20.916;2022-07-23T10:19:58;30.50;59.40
21778;DHT22;11050;52.222;20.916;2022-07-23T10:22:29;30.70;57.80
21778;DHT22;11050;52.222;20.916;2022-07-23T10:25:10;30.80;55.10
21778;DHT22;11050;52.222;20.916;2022-07-23T10:28:09;30.90;53.90
21778;DHT22;11050;52.222;20.916;2022-07-23T10:39:34;31.30;54.50
21778;DHT22;11050;52.222;20.916;2022-07-23T10:42:17;31.50;53.40
21778;DHT22;11050;52.222;20.916;2022-07-23T10:44:44;31.50;52.60
21778;DHT22;11050;52.222;20.916;2022-07-23T10:47:21;31.60;51.60
21778;DHT22;11050;52.222;20.916;2022-07-23T10:57:58;32.30;50.50
21778;DHT22;11050;52.222;20.916;2022-07-23T11:00:29;32.40;50.70
21778;DHT22;11050;52.222;20.916;2022-07-23T11:02:59;32.60;50.80
21778;DHT22;11050;52.222;20.916;2022-07-23T11:05:42;32.80;50.00
21778;DHT22;11050;52.222;20.916;2022-07-23T11:08:10;33.00;49.40
21778;DHT22;11050;52.222;20.916;2022-07-23T11:16:07;33.60;47.80
21778;DHT22;11050;52.222;20.916;2022-07-23T11:24:14;33.90;46.60
21778;DHT22;11050;52.222;20.916;2022-07-23T11:27:00;34.00;45.90
21778;DHT22;11050;52.222;20.916;2022-07-23T11:32:33;34.40;45.80
21778;DHT22;11050;52.222;20.916;2022-07-23T11:34:56;34.60;45.40
21778;DHT22;11050;52.222;20.916;2022-07-23T11:39:59;34.90;44.40
21778;DHT22;11050;52.222;20.916;2022-07-23T11:42:25;35.00;44.00
21778;DHT22;11050;52.222;20.916;2022-07-23T11:44:51;35.00;43.80
21778;DHT22;11050;52.222;20.916;2022-07-23T11:47:23;35.10;44.40
21778;DHT22;11050;52.222;20.916;2022-07-23T11:50:00;35.30;43.00
21778;DHT22;11050;52.222;20.916;2022-07-23T11:52:28;35.50;43.10
21778;DHT22;11050;52.222;20.916;2022-07-23T11:54:55;35.60;41.60
21778;DHT22;11050;52.222;20.916;2022-07-23T11:57:34;35.80;42.00
21778;DHT22;11050;52.222;20.916;2022-07-23T12:00:14;36.00;41.40
21778;DHT22;11050;52.222;20.916;2022-07-23T12:02:45;36.00;41.20
21778;DHT22;11050;52.222;20.916;2022-07-23T12:05:14;36.10;41.60
21778;DHT22;11050;52.222;20.916;2022-07-23T12:07:44;36.30;39.10
21778;DHT22;11050;52.222;20.916;2022-07-23T12:15:23;36.60;39.30
21778;DHT22;11050;52.222;20.916;2022-07-23T12:17:52;36.70;39.90
21778;DHT22;11050;52.222;20.916;2022-07-23T12:20:22;36.90;38.70
21778;DHT22;11050;52.222;20.916;2022-07-23T12:22:57;37.00;38.40
21778;DHT22;11050;52.222;20.916;2022-07-23T12:25:30;37.20;39.10
21778;DHT22;11050;52.222;20.916;2022-07-23T12:28:15;37.30;37.70
21778;DHT22;11050;52.222;20.916;2022-07-23T12:30:43;37.30;38.20
21778;DHT22;11050;52.222;20.916;2022-07-23T12:33:13;37.40;37.90
21778;DHT22;11050;52.222;20.916;2022-07-23T12:35:47;37.40;38.30
21778;DHT22;11050;52.222;20.916;2022-07-23T12:38:16;37.40;37.40
21778;DHT22;11050;52.222;20.916;2022-07-23T12:46:18;37.70;37.50
21778;DHT22;11050;52.222;20.916;2022-07-23T12:48:50;38.00;37.40
21778;DHT22;11050;52.222;20.916;2022-07-23T12:53:47;38.40;35.40
21778;DHT22;11050;52.222;20.916;2022-07-23T12:56:26;38.50;35.60
21778;DHT22;11050;52.222;20.916;2022-07-23T13:01:45;39.00;35.70
21778;DHT22;11050;52.222;20.916;2022-07-23T13:04:21;39.10;34.50
21778;DHT22;11050;52.222;20.916;2022-07-23T13:06:51;39.00;35.20
21778;DHT22;11050;52.222;20.916;2022-07-23T13:09:26;39.00;34.30
21778;DHT22;11050;52.222;20.916;2022-07-23T13:11:57;38.90;34.40
21778;DHT22;11050;52.222;20.916;2022-07-23T13:14:24;38.90;35.20
21778;DHT22;11050;52.222;20.916;2022-07-23T13:16:52;38.80;35.40
21778;DHT22;11050;52.222;20.916;2022-07-23T13:19:19;38.80;34.20
21778;DHT22;11050;52.222;20.916;2022-07-23T13:21:48;38.80;33.80
21778;DHT22;11050;52.222;20.916;2022-07-23T13:24:14;38.80;35.00
21778;DHT22;11050;52.222;20.916;2022-07-23T13:26:41;39.10;33.80
21778;DHT22;11050;52.222;20.916;2022-07-23T13:29:07;39.10;33.30
21778;DHT22;11050;52.222;20.916;2022-07-23T13:31:34;39.10;34.40
21778;DHT22;11050;52.222;20.916;2022-07-23T13:34:02;39.10;33.50
21778;DHT22;11050;52.222;20.916;2022-07-23T13:36:28;39.00;33.00
21778;DHT22;11050;52.222;20.916;2022-07-23T13:38:54;38.90;32.80
21778;DHT22;11050;52.222;20.916;2022-07-23T13:41:19;38.70;33.00
21778;DHT22;11050;52.222;20.916;2022-07-23T13:43:45;38.70;33.30
21778;DHT22;11050;52.222;20.916;2022-07-23T13:46:11;38.50;34.80
21778;DHT22;11050;52.222;20.916;2022-07-23T13:48:37;38.50;34.70
21778;DHT22;11050;52.222;20.916;2022-07-23T13:51:03;38.30;34.50
21778;DHT22;11050;52.222;20.916;2022-07-23T13:53:29;38.00;34.20
21778;DHT22;11050;52.222;20.916;2022-07-23T13:55:55;37.70;34.70
21778;DHT22;11050;52.222;20.916;2022-07-23T13:58:21;37.20;36.70
21778;DHT22;11050;52.222;20.916;2022-07-23T14:00:50;36.70;37.60
21778;DHT22;11050;52.222;20.916;2022-07-23T14:03:18;36.30;37.30
21778;DHT22;11050;52.222;20.916;2022-07-23T14:05:48;35.80;37.30
21778;DHT22;11050;52.222;20.916;2022-07-23T14:08:14;35.40;38.50
21778;DHT22;11050;52.222;20.916;2022-07-23T14:10:40;34.80;39.90
21778;DHT22;11050;52.222;20.916;2022-07-23T14:13:06;34.40;41.00
21778;DHT22;11050;52.222;20.916;2022-07-23T14:15:32;33.90;40.40
21778;DHT22;11050;52.222;20.916;2022-07-23T14:17:59;33.60;42.00
21778;DHT22;11050;52.222;20.916;2022-07-23T14:20:26;33.20;42.70
21778;DHT22;11050;52.222;20.916;2022-07-23T14:22:52;32.80;42.70
21778;DHT22;11050;52.222;20.916;2022-07-23T14:25:21;32.60;42.50
21778;DHT22;11050;52.222;20.916;2022-07-23T14:27:47;32.40;42.80
21778;DHT22;11050;52.222;20.916;2022-07-23T14:30:13;32.20;43.80
21778;DHT22;11050;52.222;20.916;2022-07-23T14:32:40;32.00;44.00
21778;DHT22;11050;52.222;20.916;2022-07-23T14:35:06;31.80;48.00
21778;DHT22;11050;52.222;20.916;2022-07-23T14:37:32;31.00;53.20
21778;DHT22;11050;52.222;20.916;2022-07-23T14:39:58;29.90;57.00
21778;DHT22;11050;52.222;20.916;2022-07-23T14:42:25;28.90;60.30
21778;DHT22;11050;52.222;20.916;2022-07-23T14:44:51;28.00;64.70
21778;DHT22;11050;52.222;20.916;2022-07-23T14:47:17;27.20;70.00
21778;DHT22;11050;52.222;20.916;2022-07-23T14:49:43;26.40;76.10
21778;DHT22;11050;52.222;20.916;2022-07-23T14:52:09;25.60;84.90
21778;DHT22;11050;52.222;20.916;2022-07-23T14:54:35;24.70;93.60
21778;DHT22;11050;52.222;20.916;2022-07-23T14:57:01;24.00;99.90
21778;DHT22;11050;52.222;20.916;2022-07-23T14:59:28;23.10;99.90
21778;DHT22;11050;52.222;20.916;2022-07-23T15:01:56;22.40;99.90
21778;DHT22;11050;52.222;20.916;2022-07-23T15:04:23;21.70;99.90
21778;DHT22;11050;52.222;20.916;2022-07-23T15:06:49;21.20;99.90
21778;DHT22;11050;52.222;20.916;2022-07-23T15:09:15;20.90;99.90
21778;DHT22;11050;52.222;20.916;2022-07-23T15:11:41;20.60;99.90
21778;DHT22;11050;52.222;20.916;2022-07-23T15:14:08;20.40;99.90
21778;DHT22;11050;52.222;20.916;2022-07-23T15:16:35;20.30;99.90
21778;DHT22;11050;52.222;20.916;2022-07-23T15:19:02;20.20;99.90
21778;DHT22;11050;52.222;20.916;2022-07-23T15:21:29;20.00;99.90
21778;DHT22;11050;52.222;20.916;2022-07-23T15:23:57;20.00;99.90
21778;DHT22;11050;52.222;20.916;2022-07-23T15:26:28;19.90;99.90
21778;DHT22;11050;52.222;20.916;2022-07-23T15:28:55;19.80;99.90
21778;DHT22;11050;52.222;20.916;2022-07-23T15:31:22;19.80;99.90
21778;DHT22;11050;52.222;20.916;2022-07-23T15:33:48;19.70;99.90
21778;DHT22;11050;52.222;20.916;2022-07-23T15:36:17;19.70;99.90
21778;DHT22;11050;52.222;20.916;2022-07-23T15:38:44;19.70;99.90
21778;DHT22;11050;52.222;20.916;2022-07-23T15:41:10;19.70;99.90
21778;DHT22;11050;52.222;20.916;2022-07-23T15:43:36;19.70;99.90
21778;DHT22;11050;52.222;20.916;2022-07-23T15:46:04;19.70;99.90
21778;DHT22;11050;52.222;20.916;2022-07-23T15:48:31;19.60;99.90
21778;DHT22;11050;52.222;20.916;2022-07-23T15:50:58;19.70;99.90
21778;DHT22;11050;52.222;20.916;2022-07-23T15:53:24;19.70;99.90
21778;DHT22;11050;52.222;20.916;2022-07-23T15:55:50;19.70;99.90
21778;DHT22;11050;52.222;20.916;2022-07-23T15:58:16;19.70;99.90
21778;DHT22;11050;52.222;20.916;2022-07-23T16:00:42;19.70;99.90
21778;DHT22;11050;52.222;20.916;2022-07-23T16:03:08;19.70;99.90
21778;DHT22;11050;52.222;20.916;2022-07-23T16:05:34;19.60;99.90
21778;DHT22;11050;52.222;20.916;2022-07-23T16:08:01;19.60;99.90
21778;DHT22;11050;52.222;20.916;2022-07-23T16:10:29;19.60;99.90
21778;DHT22;11050;52.222;20.916;2022-07-23T16:12:55;19.60;99.90